Terminal Aerodrome Forecast
Issued by NWS

Home | Current Version | Previous Version | Text Only | Print | Product List | Glossary On
Versions: 1 2 3 4 5 6 7 8 9 10 11 12 13 14 15 16 17 18 19 20 21 22 23 24 25 26 27
074
FTUS46 KLOX 201748
TAFSBP
TAF
KSBP 201748Z 2018/2118 14014KT P6SM -RA OVC012
     FM201900 16015KT 4SM RA BR OVC010
     FM202200 14005KT 5SM -RA BR OVC012
     FM210400 VRB05KT 6SM -RA BR OVC025
     FM210900 VRB05KT 3SM -RA BR OVC010=

USA.gov is the U.S. government's official web portal to all federal, state and local government web resources and services.